Home   Weather   USA   Kanab   Past weeks
Flag for USA

Past Weather in Kanab, Utah, USA — Yesterday and Last 2 Weeks

Currently: 108 °F. Sunny. (Weather station: Colorado City Municipal Airport, USA). See more current weather

Past Weather in Kanab — Graph

°F

Kanab Temperature Yesterday

Maximum temperature yesterday: 104 °F (at 1:55 pm)
Minimum temperature yesterday: 57 °F (at 5:55 am)
Average temperature yesterday: 83 °F

High & Low Weather Summary for the Past Weeks

 TemperatureHumidityPressure
High108 °F (Jun 16, 2:15 pm)46% (Jun 10, 3:35 am)30.22 "Hg (Jun 10, 3:35 am)
Low36 °F (Jun 11, 5:35 am)4% (Jun 13, 2:15 pm)29.87 "Hg (Jun 6, 6:55 pm)
Average77 °F16%30.07 "Hg
* Reported Jun 1 2:35 pm — Jun 16 2:15 pm, Kanab. Weather by CustomWeather, © 2021

Note: Actual official high and low records may vary slightly from our data, if they occured in-between our weather recording intervals... More about our weather records

Kanab Weather History for the Previous 24 Hours

Scroll right to see more
 ConditionsComfort  
Time TempWeatherWind HumidityBarometerVisibility
2:15 pm
Wed, Jun 16
108 °FSunny.9 mph7%30.15 "Hg10 mi
1:55 pm106 °FSunny.8 mph7%30.15 "Hg10 mi
1:35 pm106 °FSunny.9 mph7%30.16 "Hg10 mi
12:35 pm104 °FSunny.7 mph7%30.19 "Hg10 mi
12:15 pm104 °FSunny.No wind7%30.19 "Hg10 mi
11:55 am102 °FSunny.5 mph8%30.20 "Hg10 mi
11:35 am100 °FSunny.5 mph9%30.20 "Hg10 mi
11:15 am99 °FSunny.3 mph10%30.20 "Hg10 mi
10:55 am97 °FSunny.No wind9%30.20 "Hg10 mi
10:35 am95 °FSunny.No wind11%30.21 "Hg10 mi
10:15 am91 °FSunny.No wind12%30.22 "Hg10 mi
9:55 am91 °FSunny.9 mph12%30.22 "Hg10 mi
9:35 am90 °FSunny.7 mph12%30.22 "Hg10 mi
8:55 am86 °FSunny.12 mph13%30.22 "Hg10 mi
8:35 am82 °FSunny.10 mph15%30.22 "Hg10 mi
8:15 am77 °FSunny.5 mph19%30.21 "Hg10 mi
7:55 am73 °FSunny.5 mph22%30.20 "Hg10 mi
7:35 am68 °FSunny.9 mph26%30.20 "Hg10 mi
7:15 am63 °FSunny.12 mph30%30.19 "Hg10 mi
6:55 am63 °FSunny.7 mph32%30.19 "Hg10 mi
6:35 am61 °FSunny.5 mph29%30.19 "Hg10 mi
6:15 am59 °FSunny.8 mph31%30.18 "Hg10 mi
5:55 am68 °FClear.No wind24%30.18 "Hg10 mi
5:35 am64 °FClear.6 mph28%30.18 "Hg10 mi
5:15 am64 °FClear.3 mph26%30.18 "Hg10 mi
4:35 am68 °FClear.6 mph23%30.18 "Hg10 mi
3:55 am68 °FClear.5 mph23%30.18 "Hg10 mi
3:35 am64 °FClear.9 mph26%30.18 "Hg10 mi
3:15 am66 °FClear.8 mph24%30.18 "Hg10 mi
2:50 am66 °FClear.3 mph24%30.18 "Hg10 mi
2:35 am66 °FClear.6 mph24%30.18 "Hg10 mi
2:15 am64 °FClear.9 mph26%30.19 "Hg10 mi
1:55 am64 °FClear.10 mph26%30.18 "Hg10 mi
1:35 am64 °FClear.13 mph26%30.18 "Hg10 mi
1:15 am64 °FClear.12 mph26%30.18 "Hg10 mi
12:55 am64 °FClear.6 mph26%30.18 "Hg10 mi
12:35 am72 °FClear.No wind20%30.18 "Hg10 mi
12:15 am70 °FClear.5 mph21%30.18 "Hg10 mi
11:55 pm
Tue, Jun 15
72 °FClear.7 mph20%30.18 "Hg10 mi
11:35 pm72 °FClear.No wind20%30.18 "Hg10 mi
11:15 pm73 °FClear.13 mph20%30.18 "Hg10 mi
10:55 pm77 °FClear.9 mph17%30.18 "Hg10 mi
10:35 pm79 °FClear.10 mph17%30.18 "Hg10 mi
10:15 pm81 °FClear.5 mph16%30.17 "Hg10 mi
9:55 pm88 °FClear.6 mph13%30.16 "Hg10 mi
9:35 pm88 °FClear.7 mph13%30.15 "Hg10 mi
9:15 pm88 °FClear.6 mph13%30.15 "Hg10 mi
8:15 pm95 °FSunny.7 mph10%30.15 "Hg10 mi
7:55 pm97 °FSunny.6 mph9%30.14 "Hg10 mi
7:35 pm99 °FSunny.7 mph9%30.14 "Hg10 mi
7:15 pm99 °FSunny.12 mph8%30.13 "Hg10 mi
6:55 pm100 °FSunny.10 mph8%30.13 "Hg10 mi
6:35 pm100 °FSunny.12 mph8%30.13 "Hg10 mi
6:15 pm104 °FSunny.10 mph7%30.14 "Hg10 mi
5:55 pm104 °FSunny.14 mph7%30.14 "Hg10 mi
5:35 pm104 °FSunny.12 mph8%30.15 "Hg10 mi
5:15 pm104 °FSunny.12 mph8%30.15 "Hg10 mi
4:55 pm104 °FSunny.10 mph8%30.15 "Hg10 mi
4:35 pm104 °FSunny.14 mph8%30.16 "Hg10 mi
4:15 pm104 °FSunny.14 mph8%30.16 "Hg10 mi
3:55 pm104 °FSunny.12 mph7%30.16 "Hg10 mi
3:35 pm100 °FSunny.12 mph8%30.17 "Hg10 mi
3:15 pm104 °FSunny.13 mph7%30.18 "Hg10 mi
Weather by CustomWeather, © 2021

See weather overview